Time;durP1;ratioP1;P1;durP2;ratioP2;P2;SDS_P1;SDS_P2;PMS_P1;PMS_P2;Temp;Humidity;BMP_temperature;BMP_pressure;BME280_temperature;BME280_humidity;BME280_pressure;Samples;Min_cycle;Max_cycle;Signal;HPM_P1;HPM_P2
2021/08/17 00:01:48;;;;;;;1.42;0.70;;;14.80;99.90;;;;;;5051933;28;20086;-77
2021/08/17 00:04:14;;;;;;;0.30;0.30;;;14.60;99.90;;;;;;5051482;28;20044;-77
2021/08/17 00:06:40;;;;;;;0.40;0.40;;;14.50;99.90;;;;;;5051640;28;20075;-77
2021/08/17 00:09:06;;;;;;;0.10;0.10;;;14.40;99.90;;;;;;5051510;28;20072;-77
2021/08/17 00:11:31;;;;;;;0.15;0.15;;;14.40;99.90;;;;;;5051263;28;20387;-77
2021/08/17 00:13:57;;;;;;;0.20;0.20;;;14.40;99.90;;;;;;5051395;28;20036;-77
2021/08/17 00:16:23;;;;;;;0.10;0.10;;;14.50;99.90;;;;;;5033524;28;20036;-77
2021/08/17 00:18:48;;;;;;;5.28;1.38;;;14.60;99.90;;;;;;5051370;28;20358;-77
2021/08/17 00:21:15;;;;;;;0.13;0.13;;;14.60;99.90;;;;;;5051347;28;20025;-77
2021/08/17 00:23:41;;;;;;;0.80;0.47;;;14.50;99.90;;;;;;5051523;28;20021;-77
2021/08/17 00:26:07;;;;;;;0.10;0.10;;;14.40;99.90;;;;;;5051287;28;20104;-77
2021/08/17 00:28:32;;;;;;;1.23;0.30;;;14.30;99.90;;;;;;5051275;28;20369;-77
2021/08/17 00:30:58;;;;;;;1.15;1.10;;;14.30;99.90;;;;;;5033333;28;20059;-76
2021/08/17 00:33:24;;;;;;;1.20;0.82;;;14.10;99.90;;;;;;5051434;28;20120;-77
2021/08/17 00:35:53;;;;;;;0.30;0.30;;;14.00;99.90;;;;;;5053200;28;20031;-77
2021/08/17 00:38:19;;;;;;;0.98;0.32;;;13.90;99.90;;;;;;5037148;28;20068;-76
2021/08/17 00:40:45;;;;;;;1.48;0.85;;;13.90;99.90;;;;;;5055058;28;20056;-77
2021/08/17 00:43:11;;;;;;;0.55;0.20;;;13.90;99.90;;;;;;5037272;28;20028;-77
2021/08/17 00:45:37;;;;;;;0.50;0.50;;;14.00;99.90;;;;;;5054875;28;20021;-76
2021/08/17 00:48:03;;;;;;;0.10;0.10;;;14.00;99.90;;;;;;5020649;28;20121;-77
2021/08/17 00:50:34;;;;;;;0.10;0.10;;;14.10;99.90;;;;;;5036853;28;20078;-77
2021/08/17 00:53:01;;;;;;;0.10;0.10;;;14.20;99.90;;;;;;5037025;28;20025;-77
2021/08/17 00:55:27;;;;;;;0.17;0.17;;;14.20;99.90;;;;;;5036982;28;20091;-77
2021/08/17 00:57:53;;;;;;;0.10;0.10;;;14.10;99.90;;;;;;5036764;28;20029;-77
2021/08/17 01:00:19;;;;;;;0.50;0.50;;;14.10;99.90;;;;;;5036862;28;20427;-77
2021/08/17 01:02:46;;;;;;;0.10;0.10;;;14.30;99.90;;;;;;5054735;28;20074;-77
2021/08/17 01:05:12;;;;;;;0.10;0.10;;;14.40;99.90;;;;;;5054483;28;20023;-77
2021/08/17 01:07:39;;;;;;;0.20;0.20;;;14.70;99.90;;;;;;5054526;28;20086;-77
2021/08/17 01:10:10;;;;;;;0.40;0.40;;;14.90;99.90;;;;;;5036577;28;20021;-74
2021/08/17 01:12:39;;;;;;;0.47;0.47;;;14.60;99.90;;;;;;5054413;28;20024;-74
2021/08/17 01:15:07;;;;;;;0.10;0.10;;;14.60;99.90;;;;;;5054145;28;20036;-74
2021/08/17 01:17:33;;;;;;;0.10;0.10;;;14.60;99.90;;;;;;5054381;28;20028;-74
2021/08/17 01:19:58;;;;;;;0.30;0.30;;;14.60;99.90;;;;;;5036432;28;20029;-74
2021/08/17 01:22:25;;;;;;;0.90;0.80;;;14.30;99.90;;;;;;5054294;28;20519;-74
2021/08/17 01:24:51;;;;;;;0.10;0.10;;;14.30;99.90;;;;;;5054256;28;20032;-74
2021/08/17 01:27:17;;;;;;;0.30;0.30;;;14.50;99.90;;;;;;5054085;28;20029;-74
2021/08/17 01:29:43;;;;;;;0.20;0.20;;;14.20;99.90;;;;;;5019550;28;20049;-74
2021/08/17 01:32:15;;;;;;;0.10;0.10;;;14.20;99.90;;;;;;5054056;28;20095;-74
2021/08/17 01:34:41;;;;;;;0.10;0.10;;;14.20;99.90;;;;;;5036172;28;20108;-74
2021/08/17 01:37:07;;;;;;;0.10;0.10;;;14.10;99.90;;;;;;5054065;28;20028;-77
2021/08/17 01:39:33;;;;;;;0.10;0.10;;;14.10;99.90;;;;;;5053978;28;20091;-77
2021/08/17 01:41:59;;;;;;;0.10;0.10;;;14.30;99.90;;;;;;5019607;28;20480;-76
2021/08/17 01:44:25;;;;;;;0.63;0.47;;;14.40;99.90;;;;;;5053992;28;20130;-77
2021/08/17 01:46:50;;;;;;;5.25;2.45;;;14.40;99.90;;;;;;5052790;28;20059;-76
2021/08/17 01:49:18;;;;;;;2.30;1.38;;;14.20;99.90;;;;;;5053622;28;20037;-76
2021/08/17 01:51:48;;;;;;;0.10;0.10;;;14.30;99.90;;;;;;5035972;28;20082;-76
2021/08/17 01:54:15;;;;;;;0.20;0.20;;;14.30;99.90;;;;;;5035812;28;20120;-77
2021/08/17 01:56:42;;;;;;;0.20;0.20;;;14.30;99.90;;;;;;5053650;28;20032;-77
2021/08/17 01:59:07;;;;;;;0.20;0.20;;;14.20;99.90;;;;;;5035686;28;20368;-76
2021/08/17 02:01:33;;;;;;;0.30;0.30;;;14.00;99.90;;;;;;5053575;28;20021;-76
2021/08/17 02:03:59;;;;;;;0.98;0.90;;;13.80;99.90;;;;;;5053614;28;20025;-76
2021/08/17 02:06:25;;;;;;;0.15;0.15;;;13.80;99.90;;;;;;5053555;28;20473;-77
2021/08/17 02:08:51;;;;;;;0.13;0.13;;;13.90;99.90;;;;;;5053388;28;20029;-77
2021/08/17 02:11:16;;;;;;;0.98;0.82;;;13.80;99.90;;;;;;5052987;28;20025;-77
2021/08/17 02:13:42;;;;;;;0.63;0.47;;;13.90;99.90;;;;;;5035600;28;20033;-77
2021/08/17 02:16:08;;;;;;;0.28;0.28;;;13.90;99.90;;;;;;5035370;28;20068;-77
2021/08/17 02:18:35;;;;;;;0.15;0.15;;;13.80;99.90;;;;;;5053203;28;20059;-76
2021/08/17 02:21:03;;;;;;;0.22;0.22;;;13.80;99.90;;;;;;5035455;28;20476;-76
2021/08/17 02:23:30;;;;;;;3.53;1.65;;;13.80;99.90;;;;;;5035454;28;20032;-76
2021/08/17 02:25:57;;;;;;;0.13;0.13;;;13.90;99.90;;;;;;5053012;28;20028;-76
2021/08/17 02:28:23;;;;;;;0.38;0.38;;;13.80;99.90;;;;;;5018726;28;20033;-74
2021/08/17 02:30:51;;;;;;;0.10;0.10;;;13.90;99.90;;;;;;5035396;28;20389;-74
2021/08/17 02:33:17;;;;;;;0.80;0.35;;;14.00;99.90;;;;;;5053134;28;20017;-74
2021/08/17 02:35:43;;;;;;;0.22;0.22;;;14.00;99.90;;;;;;5035174;28;20025;-74
2021/08/17 02:38:11;;;;;;;0.17;0.17;;;13.80;99.90;;;;;;5034756;28;20436;-74
2021/08/17 02:40:38;;;;;;;2.97;0.52;;;13.80;99.90;;;;;;5035115;28;20013;-73
2021/08/17 02:43:04;;;;;;;0.30;0.30;;;13.90;99.90;;;;;;5052866;28;20358;-74
2021/08/17 02:45:30;;;;;;;0.17;0.17;;;13.90;99.90;;;;;;5052825;28;20092;-74
2021/08/17 02:47:57;;;;;;;0.15;0.15;;;13.80;99.90;;;;;;5052540;28;20059;-74
2021/08/17 02:50:23;;;;;;;0.77;0.73;;;13.70;99.90;;;;;;5052813;28;20472;-76
2021/08/17 02:52:49;;;;;;;0.20;0.20;;;13.60;99.90;;;;;;5034712;28;20032;-76
2021/08/17 02:55:15;;;;;;;0.77;0.75;;;13.50;99.90;;;;;;5052421;28;20025;-75
2021/08/17 02:58:05;;;;;;;2.55;2.35;;;13.30;99.90;;;;;;5051989;28;20028;-75
2021/08/17 03:00:31;;;;;;;0.52;0.52;;;13.10;99.90;;;;;;5034771;28;20098;-75
2021/08/17 03:02:57;;;;;;;0.20;0.20;;;12.90;99.90;;;;;;5034573;28;20029;-76
2021/08/17 03:05:23;;;;;;;0.20;0.20;;;13.00;99.90;;;;;;5052396;28;20032;-76
2021/08/17 03:07:54;;;;;;;0.40;0.25;;;13.20;99.90;;;;;;5052187;28;20385;-76
2021/08/17 03:10:21;;;;;;;1.63;1.47;;;13.50;99.90;;;;;;5034599;28;20025;-76
2021/08/17 03:12:47;;;;;;;0.10;0.10;;;13.70;99.90;;;;;;5051923;28;20029;-76
2021/08/17 03:15:13;;;;;;;0.10;0.10;;;13.80;99.90;;;;;;5034410;28;20037;-76
2021/08/17 03:17:39;;;;;;;0.20;0.20;;;13.90;99.90;;;;;;5052092;28;20548;-75
2021/08/17 03:20:10;;;;;;;0.32;0.32;;;13.90;99.90;;;;;;5034437;28;20048;-75
2021/08/17 03:22:36;;;;;;;0.30;0.30;;;14.00;99.90;;;;;;5034266;28;20021;-76
2021/08/17 03:25:04;;;;;;;2.20;1.00;;;14.10;99.90;;;;;;5034303;28;20036;-76
2021/08/17 03:27:30;;;;;;;0.13;0.13;;;13.90;99.90;;;;;;5034157;28;20059;-76
2021/08/17 03:29:56;;;;;;;0.20;0.20;;;13.70;99.90;;;;;;5034022;28;20036;-75
2021/08/17 03:32:22;;;;;;;0.30;0.30;;;13.30;99.90;;;;;;5052144;28;20068;-75
2021/08/17 03:34:48;;;;;;;0.20;0.20;;;13.30;99.90;;;;;;5051847;28;20374;-75
2021/08/17 03:37:13;;;;;;;1.08;0.25;;;13.20;99.90;;;;;;5033993;28;20028;-75
2021/08/17 03:39:39;;;;;;;0.63;0.63;;;13.10;99.90;;;;;;5051721;28;20020;-75
2021/08/17 03:42:05;;;;;;;0.20;0.20;;;13.10;99.90;;;;;;5034018;28;20104;-75
2021/08/17 03:44:31;;;;;;;0.20;0.20;;;13.10;99.90;;;;;;5051810;28;20025;-75
2021/08/17 03:46:57;;;;;;;0.82;0.25;;;12.90;99.90;;;;;;5017556;28;20583;-75
2021/08/17 03:49:23;;;;;;;0.40;0.40;;;12.90;99.90;;;;;;5119698;22;20686;-77
2021/08/17 03:51:48;;;;;;;0.10;0.10;;;12.80;99.90;;;;;;5032859;28;20017;-77
2021/08/17 03:54:14;;;;;;;0.20;0.20;;;12.70;99.90;;;;;;5033883;28;20044;-77
2021/08/17 03:56:40;;;;;;;0.10;0.10;;;12.70;99.90;;;;;;5034186;28;20029;-77
2021/08/17 03:59:05;;;;;;;0.15;0.15;;;12.80;99.90;;;;;;5017174;28;20025;-77
2021/08/17 04:01:31;;;;;;;0.32;0.32;;;12.70;99.90;;;;;;5051736;28;20041;-77
2021/08/17 04:03:57;;;;;;;0.10;0.10;;;12.60;99.90;;;;;;5033563;28;20049;-77
2021/08/17 04:06:22;;;;;;;0.30;0.30;;;12.70;99.90;;;;;;5033866;28;20025;-77
2021/08/17 04:08:48;;;;;;;0.40;0.40;;;12.70;99.90;;;;;;5033514;28;20066;-77
2021/08/17 04:11:14;;;;;;;0.45;0.45;;;12.80;99.90;;;;;;5020344;28;20155;-77
2021/08/17 04:13:40;;;;;;;0.25;0.20;;;12.90;99.90;;;;;;5037682;28;20035;-77
2021/08/17 04:16:07;;;;;;;0.50;0.50;;;13.00;99.90;;;;;;5037897;28;20029;-77
2021/08/17 04:18:32;;;;;;;0.20;0.20;;;13.10;99.90;;;;;;5055457;28;20468;-77
2021/08/17 04:20:58;;;;;;;0.30;0.30;;;13.20;99.90;;;;;;5037778;28;20111;-77
2021/08/17 04:23:24;;;;;;;0.17;0.17;;;13.20;99.90;;;;;;5037722;28;20017;-77
2021/08/17 04:25:50;;;;;;;0.20;0.20;;;13.20;99.90;;;;;;5037771;28;20408;-77
2021/08/17 04:28:16;;;;;;;0.10;0.10;;;13.30;99.90;;;;;;5055455;28;20118;-77
2021/08/17 04:30:42;;;;;;;0.20;0.20;;;13.30;99.90;;;;;;5037608;28;20021;-77
2021/08/17 04:33:07;;;;;;;0.10;0.10;;;13.40;99.90;;;;;;5055390;28;20465;-77
2021/08/17 04:35:33;;;;;;;0.10;0.10;;;13.40;99.90;;;;;;5037408;28;20029;-77
2021/08/17 04:37:59;;;;;;;0.93;0.93;;;13.40;99.90;;;;;;5037178;28;20456;-77
2021/08/17 04:40:25;;;;;;;0.45;0.45;;;13.50;99.90;;;;;;5037406;28;20476;-75
2021/08/17 04:42:51;;;;;;;0.20;0.20;;;13.30;99.90;;;;;;5055115;28;20048;-75
2021/08/17 04:45:17;;;;;;;0.10;0.10;;;13.30;99.90;;;;;;5055370;28;20468;-74
2021/08/17 04:47:48;;;;;;;0.20;0.20;;;13.30;99.90;;;;;;5036865;28;20040;-74
2021/08/17 04:50:14;;;;;;;1.50;1.42;;;13.20;99.90;;;;;;5037173;28;20039;-74
2021/08/17 04:52:40;;;;;;;0.10;0.10;;;13.30;99.90;;;;;;5036962;28;20025;-74
2021/08/17 04:55:06;;;;;;;0.10;0.10;;;13.10;99.90;;;;;;5020436;28;20120;-74
2021/08/17 04:57:44;;;;;;;0.20;0.20;;;13.00;99.90;;;;;;5036915;28;20040;-74
2021/08/17 05:00:11;;;;;;;0.20;0.20;;;13.00;99.90;;;;;;5054879;28;20021;-74
2021/08/17 05:02:36;;;;;;;0.10;0.10;;;13.20;99.90;;;;;;5036867;28;20025;-74
2021/08/17 05:05:02;;;;;;;0.20;0.20;;;13.30;99.90;;;;;;5054757;28;20025;-74
2021/08/17 05:07:28;;;;;;;0.45;0.45;;;13.30;99.90;;;;;;5052387;28;20104;-75
2021/08/17 05:09:53;;;;;;;0.10;0.10;;;13.50;99.90;;;;;;5028310;28;20025;-74
2021/08/17 05:12:19;;;;;;;0.10;0.10;;;13.50;99.90;;;;;;5053751;28;20104;-75
2021/08/17 05:14:45;;;;;;;0.10;0.10;;;13.60;99.90;;;;;;5053066;28;20033;-74
2021/08/17 05:17:11;;;;;;;0.10;0.10;;;13.70;99.90;;;;;;5045880;28;20461;-75
2021/08/17 05:19:36;;;;;;;0.10;0.10;;;13.70;99.90;;;;;;5052888;28;20020;-74
2021/08/17 05:22:02;;;;;;;0.20;0.20;;;13.70;99.90;;;;;;5043915;28;20468;-75
2021/08/17 05:24:28;;;;;;;0.10;0.10;;;13.80;99.90;;;;;;5052980;28;20143;-74
2021/08/17 05:26:54;;;;;;;0.20;0.20;;;13.70;99.90;;;;;;5040349;28;20052;-74
2021/08/17 05:29:19;;;;;;;0.20;0.20;;;13.80;99.90;;;;;;5052601;28;20103;-75
2021/08/17 05:31:45;;;;;;;0.20;0.20;;;13.60;99.90;;;;;;5053282;28;20025;-75
2021/08/17 05:34:11;;;;;;;0.10;0.10;;;13.60;99.90;;;;;;5036473;28;20078;-75
2021/08/17 05:36:36;;;;;;;0.25;0.25;;;13.60;99.90;;;;;;5044240;28;20552;-74
2021/08/17 05:39:02;;;;;;;0.43;0.43;;;13.60;99.90;;;;;;5032135;28;20492;-74
2021/08/17 05:41:28;;;;;;;1.27;0.50;;;13.70;99.90;;;;;;5051799;28;20603;-74
2021/08/17 05:43:53;;;;;;;0.20;0.20;;;13.70;99.90;;;;;;5028611;28;20492;-74
2021/08/17 05:46:19;;;;;;;0.20;0.20;;;13.70;99.90;;;;;;5037417;28;20017;-74
2021/08/17 05:48:45;;;;;;;0.95;0.95;;;13.70;99.90;;;;;;5051581;28;20025;-74
2021/08/17 05:51:11;;;;;;;0.45;0.45;;;13.80;99.90;;;;;;5053036;28;20048;-74
2021/08/17 05:53:36;;;;;;;0.40;0.40;;;13.90;99.90;;;;;;5054986;28;20036;-74
2021/08/17 05:56:02;;;;;;;0.20;0.20;;;13.90;99.90;;;;;;5041629;28;20369;-74
2021/08/17 05:58:28;;;;;;;0.90;0.77;;;13.60;99.90;;;;;;5051492;28;20451;-74
2021/08/17 06:00:54;;;;;;;1.08;0.73;;;13.50;99.90;;;;;;5050223;28;20033;-74
2021/08/17 06:03:19;;;;;;;0.55;0.43;;;13.30;99.90;;;;;;5052611;28;20092;-74
2021/08/17 06:05:45;;;;;;;0.10;0.10;;;13.40;99.90;;;;;;5044104;28;20029;-74
2021/08/17 06:08:11;;;;;;;0.20;0.20;;;13.40;99.90;;;;;;5052800;28;20106;-74
2021/08/17 06:10:37;;;;;;;0.88;0.75;;;13.50;99.90;;;;;;5044043;28;20021;-74
2021/08/17 06:13:02;;;;;;;0.30;0.30;;;13.30;99.90;;;;;;5052468;28;20419;-74
2021/08/17 06:15:28;;;;;;;1.98;1.38;;;13.30;99.90;;;;;;5042208;28;20063;-74
2021/08/17 06:17:54;;;;;;;0.63;0.63;;;13.30;99.90;;;;;;5049154;28;20017;-74
2021/08/17 06:20:20;;;;;;;0.20;0.20;;;13.30;99.90;;;;;;5041701;28;20111;-74
2021/08/17 06:22:46;;;;;;;0.20;0.20;;;13.50;99.90;;;;;;5037761;28;20021;-74
2021/08/17 06:25:12;;;;;;;0.43;0.20;;;13.60;99.90;;;;;;5052271;28;20049;-74
2021/08/17 06:27:37;;;;;;;0.20;0.20;;;13.80;99.90;;;;;;5051872;28;20467;-74
2021/08/17 06:30:05;;;;;;;0.30;0.30;;;13.90;99.90;;;;;;5051642;28;20083;-74
2021/08/17 06:32:31;;;;;;;0.30;0.30;;;13.90;99.90;;;;;;5051773;28;20028;-74
2021/08/17 06:34:57;;;;;;;0.20;0.20;;;14.00;99.90;;;;;;5040801;28;20029;-74
2021/08/17 06:37:23;;;;;;;0.10;0.10;;;14.20;99.90;;;;;;5025181;28;20127;-74
2021/08/17 06:39:49;;;;;;;12.40;5.15;;;14.40;99.90;;;;;;5043006;28;20025;-74
2021/08/17 06:42:14;;;;;;;1.17;0.90;;;14.10;99.90;;;;;;5051756;28;20071;-74
2021/08/17 06:44:40;;;;;;;0.20;0.20;;;13.50;99.90;;;;;;5042552;28;20025;-73
2021/08/17 06:47:06;;;;;;;6.82;3.50;;;13.50;99.90;;;;;;5034991;28;20437;-75
2021/08/17 06:49:31;;;;;;;0.40;0.40;;;13.80;99.90;;;;;;5033973;28;20116;-76
2021/08/17 06:51:57;;;;;;;0.32;0.30;;;13.70;99.90;;;;;;5051547;28;20025;-76
2021/08/17 06:54:23;;;;;;;2.72;2.17;;;13.80;99.90;;;;;;5028515;28;20055;-76
2021/08/17 06:56:48;;;;;;;1.63;0.80;;;13.80;99.90;;;;;;5047203;28;20473;-76
2021/08/17 06:59:14;;;;;;;7.13;6.50;;;13.80;99.90;;;;;;5049790;28;20017;-76
2021/08/17 07:01:41;;;;;;;8.60;0.63;;;13.70;99.90;;;;;;5018120;28;20017;-76
2021/08/17 07:04:07;;;;;;;2.30;1.42;;;13.60;99.90;;;;;;5043038;28;20021;-76
2021/08/17 07:06:35;;;;;;;0.30;0.30;;;13.60;99.90;;;;;;5038081;28;20519;-76
2021/08/17 07:09:02;;;;;;;0.90;0.90;;;13.90;99.90;;;;;;5027136;28;20078;-76
2021/08/17 07:11:29;;;;;;;0.85;0.52;;;13.80;99.90;;;;;;5051193;28;20025;-76
2021/08/17 07:13:55;;;;;;;0.40;0.40;;;13.90;99.90;;;;;;5050293;28;20111;-77
2021/08/17 07:16:20;;;;;;;5.95;1.50;;;14.10;99.90;;;;;;5042948;28;20103;-76
2021/08/17 07:18:46;;;;;;;0.80;0.80;;;14.20;99.90;;;;;;5016291;28;20032;-76
2021/08/17 07:21:12;;;;;;;0.20;0.20;;;14.00;99.90;;;;;;5050771;28;20098;-76
2021/08/17 07:23:38;;;;;;;0.70;0.52;;;13.90;99.90;;;;;;5038191;28;20025;-76
2021/08/17 07:26:04;;;;;;;3.13;1.30;;;13.80;99.90;;;;;;5050757;28;20056;-76
2021/08/17 07:28:30;;;;;;;6.13;5.00;;;13.90;99.90;;;;;;5039556;28;20312;-76
2021/08/17 07:30:56;;;;;;;1.35;0.40;;;14.20;99.90;;;;;;5051041;28;20091;-77
2021/08/17 07:33:21;;;;;;;4.60;3.65;;;14.00;99.90;;;;;;5038336;28;20017;-76
2021/08/17 07:35:47;;;;;;;0.20;0.20;;;14.40;99.90;;;;;;5026726;28;20095;-76
2021/08/17 07:38:13;;;;;;;0.30;0.30;;;14.50;99.90;;;;;;5016379;28;20484;-76
2021/08/17 07:40:40;;;;;;;2.15;0.85;;;14.70;99.90;;;;;;5016554;28;20059;-76
2021/08/17 07:43:05;;;;;;;1.75;0.98;;;14.70;99.90;;;;;;5038224;28;20017;-76
2021/08/17 07:45:31;;;;;;;2.45;0.90;;;14.90;99.90;;;;;;5042722;28;20435;-76
2021/08/17 07:47:57;;;;;;;0.20;0.20;;;14.90;99.90;;;;;;5050585;28;20037;-76
2021/08/17 07:50:23;;;;;;;3.60;0.30;;;15.00;99.90;;;;;;5050580;28;20044;-76
2021/08/17 07:52:50;;;;;;;0.20;0.20;;;15.20;99.90;;;;;;5050947;28;20033;-76
2021/08/17 07:55:17;;;;;;;0.10;0.10;;;15.50;99.90;;;;;;5025583;28;20033;-76
2021/08/17 07:57:43;;;;;;;1.75;0.65;;;15.80;99.90;;;;;;5050731;28;20044;-76
2021/08/17 08:00:12;;;;;;;3.35;2.25;;;15.90;99.90;;;;;;5021853;28;20054;-76
2021/08/17 08:02:38;;;;;;;0.20;0.20;;;15.80;99.90;;;;;;5050783;28;20540;-76
2021/08/17 08:05:05;;;;;;;0.20;0.20;;;15.90;99.90;;;;;;5029534;28;20171;-76
2021/08/17 08:07:31;;;;;;;1.55;1.42;;;15.70;99.90;;;;;;5046314;28;20052;-76
2021/08/17 08:09:57;;;;;;;4.40;1.10;;;15.30;99.90;;;;;;5053076;28;20053;-76
2021/08/17 08:12:23;;;;;;;0.88;0.85;;;15.50;99.90;;;;;;5054966;28;20395;-76
2021/08/17 08:14:48;;;;;;;1.05;0.65;;;15.30;99.90;;;;;;5042697;28;20384;-76
2021/08/17 08:17:14;;;;;;;0.75;0.40;;;15.80;99.90;;;;;;5049821;28;20028;-76
2021/08/17 08:19:40;;;;;;;0.20;0.20;;;15.50;99.90;;;;;;5049610;28;20385;-76
2021/08/17 08:22:08;;;;;;;1.95;1.30;;;15.70;99.90;;;;;;5049980;28;20053;-76
2021/08/17 08:24:35;;;;;;;8.35;2.78;;;15.80;99.90;;;;;;5044707;28;20071;-73
2021/08/17 08:27:01;;;;;;;0.32;0.32;;;16.40;99.90;;;;;;5050236;28;20347;-76
2021/08/17 08:29:26;;;;;;;0.28;0.28;;;16.70;99.90;;;;;;5041564;28;20488;-76
2021/08/17 08:31:53;;;;;;;0.38;0.38;;;17.10;99.90;;;;;;5050017;28;20087;-76
2021/08/17 08:34:19;;;;;;;1.13;0.82;;;17.50;99.90;;;;;;5048876;28;20036;-76
2021/08/17 08:36:45;;;;;;;0.77;0.55;;;17.40;99.90;;;;;;5024455;28;20021;-77
2021/08/17 08:39:11;;;;;;;4.25;0.63;;;17.20;99.60;;;;;;5027835;28;20652;-76
2021/08/17 08:41:39;;;;;;;0.20;0.20;;;16.80;99.20;;;;;;5050483;28;20035;-76
2021/08/17 08:44:05;;;;;;;0.55;0.40;;;16.20;99.90;;;;;;5050420;28;20044;-77
2021/08/17 08:46:31;;;;;;;0.90;0.73;;;16.50;99.70;;;;;;5050181;28;20025;-76
2021/08/17 08:48:57;;;;;;;0.20;0.20;;;16.80;99.90;;;;;;5040928;28;20029;-76
2021/08/17 08:51:23;;;;;;;0.15;0.15;;;17.20;97.30;;;;;;5036139;28;20037;-76
2021/08/17 08:53:49;;;;;;;0.20;0.20;;;17.30;95.50;;;;;;5036804;28;20478;-76
2021/08/17 08:56:15;;;;;;;0.10;0.10;;;17.50;95.80;;;;;;5038150;28;20108;-76
2021/08/17 08:58:42;;;;;;;0.10;0.10;;;17.90;95.30;;;;;;5054079;28;20048;-76
2021/08/17 09:01:18;;;;;;;1.85;0.20;;;18.30;92.30;;;;;;5045219;28;20109;-76
2021/08/17 09:03:49;;;;;;;1.27;1.05;;;18.30;90.00;;;;;;5040988;28;20032;-76
2021/08/17 09:06:26;;;;;;;0.77;0.75;;;17.60;88.90;;;;;;5053461;28;20067;-76
2021/08/17 09:09:13;;;;;;;0.73;0.73;;;17.90;91.10;;;;;;5053576;28;20201;-76
2021/08/17 09:11:42;;;;;;;0.10;0.10;;;18.20;90.20;;;;;;5034541;28;20033;-76
2021/08/17 09:14:21;;;;;;;0.17;0.17;;;18.80;87.50;;;;;;5053879;28;20053;-76
2021/08/17 09:16:53;;;;;;;0.20;0.20;;;19.00;84.80;;;;;;5035805;28;20078;-76
2021/08/17 09:19:22;;;;;;;;;;;19.10;85.50;;;;;;5049459;28;20075;-77
2021/08/17 09:21:47;;;;;;;1.10;0.98;;;19.20;82.40;;;;;;5051548;28;19947;-76
2021/08/17 09:24:18;;;;;;;1.33;1.23;;;19.20;82.50;;;;;;5041009;28;20433;-76
2021/08/17 09:26:52;;;;;;;0.43;0.37;;;18.80;83.00;;;;;;5053223;28;20033;-76
2021/08/17 09:29:33;;;;;;;1.55;1.05;;;18.90;84.40;;;;;;5053667;28;20423;-74
2021/08/17 09:32:02;;;;;;;1.17;1.08;;;19.10;81.90;;;;;;5023631;28;20025;-74
2021/08/17 09:34:31;;;;;;;0.55;0.55;;;19.00;81.10;;;;;;5030730;28;20112;-74
2021/08/17 09:37:00;;;;;;;0.10;0.10;;;18.90;81.50;;;;;;5025502;28;20488;-74
2021/08/17 09:39:55;;;;;;;0.10;0.10;;;18.90;81.30;;;;;;5053305;28;20021;-76
2021/08/17 09:42:32;;;;;;;0.13;0.13;;;19.30;77.60;;;;;;5034663;28;20091;-74
2021/08/17 09:45:13;;;;;;;3.95;0.57;;;19.50;77.80;;;;;;5049174;28;20025;-74
2021/08/17 09:47:54;;;;;;;0.22;0.22;;;19.30;77.70;;;;;;5052817;28;20029;-74
2021/08/17 09:50:29;;;;;;;0.73;0.73;;;19.50;77.70;;;;;;5053021;28;20037;-74
2021/08/17 09:53:17;;;;;;;5.78;1.08;;;20.10;75.80;;;;;;5027878;28;20021;-74
2021/08/17 09:55:48;;;;;;;0.20;0.20;;;20.80;76.20;;;;;;5037632;28;20035;-75
2021/08/17 09:58:24;;;;;;;0.40;0.40;;;20.80;72.80;;;;;;5052462;28;20021;-74
2021/08/17 10:00:54;;;;;;;0.30;0.30;;;20.50;73.40;;;;;;5096226;22;20045;-76
2021/08/17 10:03:20;;;;;;;0.32;0.32;;;19.80;71.30;;;;;;5013668;28;20033;-77
2021/08/17 10:05:47;;;;;;;0.10;0.10;;;19.90;73.00;;;;;;5016007;28;20057;-77
2021/08/17 10:08:16;;;;;;;0.45;0.30;;;20.40;72.30;;;;;;4996429;28;20121;-78
2021/08/17 10:10:46;;;;;;;3.00;1.75;;;20.50;70.60;;;;;;5014533;28;20117;-77
2021/08/17 10:13:14;;;;;;;1.20;0.43;;;20.90;69.40;;;;;;5013556;28;20030;-77
2021/08/17 10:15:43;;;;;;;1.08;0.40;;;21.10;69.60;;;;;;5013515;28;20038;-77
2021/08/17 10:18:10;;;;;;;0.10;0.10;;;21.00;66.50;;;;;;5013380;28;20076;-77
2021/08/17 10:20:38;;;;;;;2.90;1.08;;;20.70;70.20;;;;;;5015223;28;20050;-77
2021/08/17 10:23:07;;;;;;;2.47;0.75;;;20.40;66.70;;;;;;5013583;28;20025;-77
2021/08/17 10:25:50;;;;;;;2.10;1.15;;;20.40;68.10;;;;;;4997085;28;20423;-77
2021/08/17 10:28:41;;;;;;;0.52;0.43;;;21.00;64.70;;;;;;5010157;28;20022;-77
2021/08/17 10:31:28;;;;;;;0.30;0.30;;;21.20;64.20;;;;;;5005192;28;20064;-77
2021/08/17 10:34:07;;;;;;;0.60;0.60;;;21.60;63.90;;;;;;4998088;28;20125;-77
2021/08/17 10:36:43;;;;;;;0.43;0.43;;;21.50;63.80;;;;;;4999914;28;20034;-80
2021/08/17 10:39:17;;;;;;;0.45;0.28;;;21.20;64.20;;;;;;5012543;28;20056;-76
2021/08/17 10:41:45;;;;;;;1.17;0.75;;;21.90;64.00;;;;;;4995586;28;20018;-77
2021/08/17 10:44:13;;;;;;;3.35;1.63;;;21.30;63.50;;;;;;4994380;28;20036;-76
2021/08/17 10:46:51;;;;;;;0.10;0.10;;;20.90;66.10;;;;;;5011155;28;20103;-76
2021/08/17 10:49:26;;;;;;;0.22;0.22;;;21.50;64.70;;;;;;5012389;28;20405;-76
2021/08/17 10:51:53;;;;;;;0.20;0.20;;;20.50;64.70;;;;;;5011527;28;20022;-76
2021/08/17 10:54:19;;;;;;;1.85;0.35;;;20.30;68.40;;;;;;5013134;28;20473;-77
2021/08/17 10:56:47;;;;;;;0.50;0.50;;;20.00;66.30;;;;;;5012781;28;20050;-77
2021/08/17 10:59:14;;;;;;;0.10;0.10;;;20.40;67.00;;;;;;5010685;28;20018;-77
2021/08/17 11:01:42;;;;;;;0.10;0.10;;;20.20;66.70;;;;;;5011461;28;20674;-77
2021/08/17 11:04:21;;;;;;;0.63;0.63;;;20.50;66.50;;;;;;5010821;28;20029;-77
2021/08/17 11:06:52;;;;;;;0.20;0.20;;;21.10;64.20;;;;;;5007161;28;20519;-77
2021/08/17 11:09:30;;;;;;;1.08;0.65;;;21.70;64.70;;;;;;5010067;28;20385;-77
2021/08/17 11:11:59;;;;;;;1.38;1.30;;;22.30;62.00;;;;;;5010529;28;20034;-75
2021/08/17 11:14:36;;;;;;;1.25;0.20;;;22.50;58.40;;;;;;5011452;28;20109;-76
2021/08/17 11:17:07;;;;;;;0.38;0.38;;;22.20;58.10;;;;;;5010825;28;20030;-76
2021/08/17 11:19:36;;;;;;;0.70;0.30;;;21.30;59.50;;;;;;5011630;28;20014;-75
2021/08/17 11:22:05;;;;;;;9.82;1.27;;;20.50;60.80;;;;;;5013094;28;20110;-76
2021/08/17 11:24:36;;;;;;;0.43;0.43;;;20.50;63.00;;;;;;5012317;28;20485;-77
2021/08/17 11:27:08;;;;;;;0.10;0.10;;;20.60;64.10;;;;;;4998442;28;20026;-76
2021/08/17 11:29:41;;;;;;;1.48;1.38;;;21.50;63.20;;;;;;5007649;28;20034;-76
2021/08/17 11:32:12;;;;;;;1.52;1.42;;;21.50;61.30;;;;;;4994547;28;20153;-76
2021/08/17 11:34:40;;;;;;;3.50;1.80;;;21.30;59.20;;;;;;5010718;28;20030;-75
2021/08/17 11:37:09;;;;;;;0.10;0.10;;;21.10;59.80;;;;;;5012855;28;20539;-75
2021/08/17 11:39:41;;;;;;;2.22;1.58;;;20.20;63.70;;;;;;5012359;28;20014;-76
2021/08/17 11:42:12;;;;;;;0.10;0.10;;;20.10;63.30;;;;;;5014456;28;20387;-76
2021/08/17 11:44:39;;;;;;;1.38;1.27;;;20.20;65.00;;;;;;5010865;28;20022;-76
2021/08/17 11:47:11;;;;;;;2.22;0.75;;;20.20;64.00;;;;;;5015135;28;20095;-76
2021/08/17 11:49:37;;;;;;;0.57;0.55;;;20.30;63.10;;;;;;5012161;28;20025;-77
2021/08/17 11:52:10;;;;;;;0.35;0.30;;;20.50;64.10;;;;;;5011494;28;20112;-76
2021/08/17 11:54:55;;;;;;;3.65;0.55;;;21.00;63.70;;;;;;5006973;28;20105;-76
2021/08/17 11:57:28;;;;;;;1.40;0.57;;;21.20;62.10;;;;;;5011049;28;20018;-76
2021/08/17 11:59:56;;;;;;;1.70;1.42;;;20.80;60.60;;;;;;5006289;28;20500;-76
2021/08/17 12:02:24;;;;;;;0.15;0.15;;;20.50;62.30;;;;;;5011536;28;20041;-76
2021/08/17 12:05:20;;;;;;;0.65;0.40;;;20.20;64.40;;;;;;5010986;28;20098;-76
2021/08/17 12:07:49;;;;;;;11.00;1.38;;;19.80;64.70;;;;;;5002411;28;20049;-76
2021/08/17 12:10:20;;;;;;;3.83;0.63;;;19.30;66.30;;;;;;5009685;28;20477;-76
2021/08/17 12:13:05;;;;;;;0.25;0.25;;;19.20;68.40;;;;;;5013595;28;20033;-76
2021/08/17 12:15:40;;;;;;;0.10;0.10;;;19.30;69.00;;;;;;5009425;28;20026;-76
2021/08/17 12:18:09;;;;;;;0.43;0.43;;;19.60;70.50;;;;;;5006002;28;20083;-76
2021/08/17 12:20:40;;;;;;;1.80;0.77;;;19.70;68.30;;;;;;5010886;28;20030;-76
2021/08/17 12:23:21;;;;;;;0.30;0.30;;;19.50;68.30;;;;;;4993844;28;20481;-76
2021/08/17 12:25:50;;;;;;;0.40;0.40;;;19.30;69.70;;;;;;5006537;28;20068;-76
2021/08/17 12:28:33;;;;;;;0.28;0.28;;;19.50;69.80;;;;;;5009545;28;20054;-76
2021/08/17 12:31:05;;;;;;;7.40;1.50;;;19.80;69.50;;;;;;5006837;28;20029;-76
2021/08/17 12:33:31;;;;;;;0.20;0.20;;;19.50;67.60;;;;;;5013770;28;20032;-76
2021/08/17 12:35:56;;;;;;;0.10;0.10;;;19.60;68.70;;;;;;5014338;28;20038;-76
2021/08/17 12:38:22;;;;;;;0.20;0.20;;;20.00;69.90;;;;;;5013062;28;20040;-76
2021/08/17 12:40:51;;;;;;;0.10;0.10;;;20.10;68.10;;;;;;5014287;28;20065;-76
2021/08/17 12:43:22;;;;;;;0.28;0.28;;;20.20;66.50;;;;;;4996065;28;20026;-75
2021/08/17 12:45:48;;;;;;;0.38;0.38;;;20.50;67.70;;;;;;5014350;28;20081;-77
2021/08/17 12:48:16;;;;;;;0.52;0.52;;;21.00;67.00;;;;;;5013255;28;20033;-76
2021/08/17 12:50:47;;;;;;;0.20;0.20;;;21.10;64.60;;;;;;5009972;28;20370;-77
2021/08/17 12:53:31;;;;;;;0.43;0.40;;;21.40;65.30;;;;;;5014300;28;20056;-77